createdAt,value
2022-08-20T00:00:10.367Z,8.20
2022-08-20T00:05:14.481Z,10.15
2022-08-20T00:10:18.379Z,5.80
2022-08-20T00:15:29.310Z,5.20
2022-08-20T00:20:36.327Z,12.65
2022-08-20T00:25:42.575Z,7.97
2022-08-20T00:30:48.068Z,6.60
2022-08-20T00:35:53.504Z,6.10
2022-08-20T00:40:59.498Z,6.18
2022-08-20T00:46:06.996Z,7.50
2022-08-20T00:51:13.328Z,6.43
2022-08-20T00:56:17.083Z,7.70
2022-08-20T01:01:24.058Z,7.05
2022-08-20T01:06:27.752Z,7.43
2022-08-20T01:11:36.985Z,6.00
2022-08-20T01:16:45.514Z,6.32
2022-08-20T01:21:49.921Z,8.35
2022-08-20T01:26:58.081Z,6.43
2022-08-20T01:32:02.460Z,7.05
2022-08-20T01:37:05.827Z,8.88
2022-08-20T01:42:15.555Z,8.10
2022-08-20T01:47:23.773Z,10.45
2022-08-20T01:52:34.546Z,7.85
2022-08-20T01:57:40.721Z,10.85
2022-08-20T02:02:44.740Z,9.10
2022-08-20T02:07:48.037Z,9.30
2022-08-20T02:12:53.138Z,8.88
2022-08-20T02:17:59.198Z,9.55
2022-08-20T02:23:03.491Z,15.13
2022-08-20T02:28:10.577Z,7.75
2022-08-20T02:33:16.258Z,10.30
2022-08-20T02:38:19.573Z,11.27
2022-08-20T02:43:24.396Z,8.82
2022-08-20T02:48:28.861Z,7.45
2022-08-20T02:53:34.511Z,8.27
2022-08-20T02:58:39.502Z,6.35
2022-08-20T03:03:44.455Z,6.22
2022-08-20T03:08:47.760Z,8.30
2022-08-20T03:13:52.777Z,6.75
2022-08-20T03:18:56.005Z,7.72
2022-08-20T03:23:59.269Z,11.10
2022-08-20T03:29:04.378Z,8.45
2022-08-20T03:34:07.700Z,7.32
2022-08-20T03:39:13.369Z,7.82
2022-08-20T03:44:18.658Z,8.43
2022-08-20T03:49:24.348Z,10.02
2022-08-20T03:54:31.708Z,12.10
2022-08-20T03:59:37.032Z,9.18
2022-08-20T04:04:40.874Z,11.05
2022-08-20T04:09:44.935Z,6.85
2022-08-20T04:14:49.665Z,7.70
2022-08-20T04:19:53.307Z,8.45
2022-08-20T04:24:56.542Z,12.82
2022-08-20T04:30:03.983Z,11.13
2022-08-20T04:35:08.608Z,12.05
2022-08-20T04:40:33.124Z,6.65
2022-08-20T04:45:37.722Z,6.65
2022-08-20T04:50:43.196Z,7.60
2022-08-20T04:55:47.311Z,4.85
2022-08-20T05:00:55.524Z,5.45
2022-08-20T05:06:01.473Z,9.32
2022-08-20T05:11:33.715Z,7.93
2022-08-20T05:16:29.713Z,5.07
2022-08-20T05:21:32.938Z,10.70
2022-08-20T05:26:36.560Z,9.45
2022-08-20T05:31:42.325Z,5.82
2022-08-20T05:36:49.686Z,5.53
2022-08-20T05:41:53.214Z,5.32
2022-08-20T05:46:57.799Z,7.95
2022-08-20T05:52:01.111Z,5.40
2022-08-20T05:57:04.714Z,5.90
2022-08-20T06:02:29.569Z,4.57
2022-08-20T06:07:32.828Z,3.78
2022-08-20T06:12:36.202Z,4.65
2022-08-20T06:17:41.576Z,7.78
2022-08-20T06:22:48.035Z,4.05
2022-08-20T06:27:51.397Z,3.63
2022-08-20T06:32:56.177Z,3.75
2022-08-20T06:38:00.511Z,4.47
2022-08-20T06:43:03.931Z,4.60
2022-08-20T06:48:11.287Z,7.18
2022-08-20T06:53:21.896Z,4.80
2022-08-20T06:58:37.874Z,4.57
2022-08-20T07:03:54.419Z,8.88
2022-08-20T07:08:59.219Z,4.03
2022-08-20T07:14:05.619Z,5.18
2022-08-20T07:19:10.579Z,5.47
2022-08-20T07:24:13.848Z,3.75
2022-08-20T07:29:17.545Z,3.15
2022-08-20T07:34:26.379Z,4.53
2022-08-20T07:39:30.041Z,4.55
2022-08-20T07:44:35.441Z,6.78
2022-08-20T07:49:41.737Z,3.88
2022-08-20T07:54:45.461Z,3.70
2022-08-20T07:59:49.631Z,6.32
2022-08-20T08:04:54.390Z,3.50
2022-08-20T08:09:58.826Z,6.90
2022-08-20T08:15:03.068Z,5.15
2022-08-20T08:20:09.717Z,5.53
2022-08-20T08:25:14.041Z,7.72
2022-08-20T08:30:18.326Z,3.10
2022-08-20T08:35:23.105Z,3.58
2022-08-20T08:40:26.768Z,8.05
2022-08-20T08:45:36.866Z,3.78
2022-08-20T08:50:54.190Z,3.03
2022-08-20T08:55:58.770Z,2.90
2022-08-20T09:01:13.950Z,2.63
2022-08-20T09:06:37.574Z,2.92
2022-08-20T09:11:48.138Z,3.22
2022-08-20T09:16:53.333Z,3.10
2022-08-20T09:21:59.239Z,4.30
2022-08-20T09:27:02.578Z,3.38
2022-08-20T09:32:07.853Z,8.05
2022-08-20T09:37:14.655Z,2.42
2022-08-20T09:42:21.371Z,4.28
2022-08-20T09:47:25.051Z,3.80
2022-08-20T09:52:33.049Z,5.70
2022-08-20T09:57:36.577Z,5.25
2022-08-20T10:02:40.580Z,3.50
2022-08-20T10:07:45.395Z,2.22
2022-08-20T10:12:54.771Z,4.20
2022-08-20T10:17:58.590Z,20.40
2022-08-20T10:23:03.678Z,7.40
2022-08-20T10:28:08.316Z,8.77
2022-08-20T10:33:11.707Z,4.20
2022-08-20T10:38:16.447Z,5.72
2022-08-20T10:43:19.791Z,4.80
2022-08-20T10:48:23.055Z,2.88
2022-08-20T10:53:27.841Z,6.32
2022-08-20T10:58:37.532Z,7.63
2022-08-20T11:03:43.059Z,4.35
2022-08-20T11:08:47.761Z,2.50
2022-08-20T11:13:51.277Z,2.65
2022-08-20T11:18:55.824Z,5.55
2022-08-20T11:24:02.919Z,2.60
2022-08-20T11:29:06.624Z,2.67
2022-08-20T11:34:12.859Z,1.75
2022-08-20T11:39:17.692Z,1.05
2022-08-20T11:44:21.754Z,1.17
2022-08-20T11:49:25.289Z,1.60
2022-08-20T11:54:31.949Z,1.45
2022-08-20T11:59:36.143Z,1.45
2022-08-20T12:04:39.427Z,1.95
2022-08-20T12:09:50.970Z,1.30
2022-08-20T12:14:56.025Z,1.58
2022-08-20T12:20:01.859Z,1.00
2022-08-20T12:25:08.363Z,1.10
2022-08-20T12:30:14.663Z,2.22
2022-08-20T12:35:22.041Z,2.08
2022-08-20T12:40:32.245Z,4.07
2022-08-20T12:45:37.249Z,3.80
2022-08-20T12:50:43.290Z,1.15
2022-08-20T12:55:48.398Z,1.70
2022-08-20T13:00:59.252Z,3.83
2022-08-20T13:06:02.867Z,1.38
2022-08-20T13:11:07.809Z,3.63
2022-08-20T13:16:11.889Z,1.85
2022-08-20T13:21:15.902Z,0.93
2022-08-20T13:26:23.608Z,0.98
2022-08-20T13:31:26.880Z,1.48
2022-08-20T13:36:32.160Z,0.63
2022-08-20T13:41:36.940Z,0.52
2022-08-20T13:46:40.226Z,0.85
2022-08-20T13:51:43.544Z,0.80
2022-08-20T13:56:51.173Z,0.90
2022-08-20T14:01:54.486Z,3.58
2022-08-20T14:06:57.764Z,1.00
2022-08-20T14:12:02.437Z,0.95
2022-08-20T14:17:19.936Z,2.92
2022-08-20T14:22:23.239Z,0.57
2022-08-20T14:27:31.138Z,0.63
2022-08-20T14:32:35.268Z,1.38
2022-08-20T14:37:40.697Z,1.58
2022-08-20T14:42:51.479Z,1.75
2022-08-20T14:47:57.341Z,1.42
2022-08-20T14:53:00.940Z,3.85
2022-08-20T14:58:08.311Z,1.75
2022-08-20T15:03:13.461Z,2.30
2022-08-20T15:08:16.911Z,1.30
2022-08-20T15:13:21.709Z,0.85
2022-08-20T15:18:25.292Z,0.80
2022-08-20T15:23:28.620Z,1.13
2022-08-20T15:28:33.488Z,1.77
2022-08-20T15:33:36.858Z,0.90
2022-08-20T15:38:40.176Z,0.88
2022-08-20T15:43:44.897Z,1.20
2022-08-20T15:48:49.143Z,3.17
2022-08-20T15:54:00.636Z,2.00
2022-08-20T15:59:22.788Z,1.30
2022-08-20T16:04:54.936Z,0.70
2022-08-20T16:10:05.939Z,4.03
2022-08-20T16:15:17.775Z,1.05
2022-08-20T16:20:25.494Z,1.52
2022-08-20T16:25:44.212Z,0.90
2022-08-20T16:30:52.531Z,0.68
2022-08-20T16:36:01.095Z,3.92
2022-08-20T16:41:17.802Z,0.70
2022-08-20T16:46:26.255Z,2.40
2022-08-20T16:51:40.924Z,0.93
2022-08-20T16:56:46.455Z,0.93
2022-08-20T17:02:04.485Z,1.02
2022-08-20T17:07:13.084Z,0.90
2022-08-20T17:12:18.901Z,2.20
2022-08-20T17:17:27.334Z,0.80
2022-08-20T17:22:32.506Z,3.15
2022-08-20T17:27:40.274Z,1.17
2022-08-20T17:32:57.876Z,0.68
2022-08-20T17:38:03.640Z,0.65
2022-08-20T17:43:10.122Z,0.95
2022-08-20T17:48:20.273Z,1.70
2022-08-20T17:53:26.942Z,1.10
2022-08-20T17:58:39.374Z,0.75
2022-08-20T18:03:44.093Z,0.98
2022-08-20T18:08:57.089Z,0.85
2022-08-20T18:14:20.246Z,0.57
2022-08-20T18:19:50.755Z,0.35
2022-08-20T18:25:02.222Z,0.60
2022-08-20T18:30:21.391Z,1.33
2022-08-20T18:35:45.809Z,0.73
2022-08-20T18:40:55.437Z,0.90
2022-08-20T18:46:17.962Z,1.05
2022-08-20T18:51:30.182Z,0.73
2022-08-20T18:56:40.932Z,1.42
2022-08-20T19:01:47.316Z,0.88
2022-08-20T19:06:57.590Z,2.83
2022-08-20T19:12:24.974Z,1.20
2022-08-20T19:17:53.016Z,1.05
2022-08-20T19:23:06.033Z,1.10
2022-08-20T19:28:22.831Z,2.67
2022-08-20T19:33:31.491Z,1.50
2022-08-20T19:38:51.204Z,2.58
2022-08-20T19:43:55.039Z,2.78
2022-08-20T19:49:15.373Z,0.77
2022-08-20T19:54:25.214Z,0.82
2022-08-20T19:59:28.517Z,1.05
2022-08-20T20:04:41.130Z,1.33
2022-08-20T20:10:00.375Z,0.85
2022-08-20T20:15:04.076Z,1.35
2022-08-20T20:20:22.511Z,1.20
2022-08-20T20:25:42.274Z,1.05
2022-08-20T20:30:47.158Z,0.95
2022-08-20T20:36:01.870Z,1.85
2022-08-20T20:41:19.082Z,2.95
2022-08-20T20:46:27.670Z,1.40
2022-08-20T20:51:34.202Z,1.15
2022-08-20T20:56:40.953Z,1.25
2022-08-20T21:01:48.743Z,1.20
2022-08-20T21:06:57.236Z,4.18
2022-08-20T21:12:01.894Z,2.05
2022-08-20T21:17:08.119Z,4.93
2022-08-20T21:22:11.328Z,1.42
2022-08-20T21:27:16.101Z,1.77
2022-08-20T21:32:20.638Z,5.38
2022-08-20T21:37:24.114Z,1.75
2022-08-20T21:42:29.850Z,2.78
2022-08-20T21:47:33.283Z,1.65
2022-08-20T21:52:38.029Z,1.48
2022-08-20T21:57:51.474Z,2.05
2022-08-20T22:02:54.752Z,1.52
2022-08-20T22:07:58.057Z,1.52
2022-08-20T22:13:02.907Z,1.17
2022-08-20T22:18:08.046Z,1.30
2022-08-20T22:23:11.625Z,1.35
2022-08-20T22:28:16.426Z,1.92
2022-08-20T22:33:22.848Z,2.17
2022-08-20T22:38:26.569Z,1.95
2022-08-20T22:43:31.211Z,2.92
2022-08-20T22:48:34.658Z,1.60
2022-08-20T22:53:38.243Z,1.10
2022-08-20T22:58:42.847Z,4.00
2022-08-20T23:03:52.542Z,2.47
2022-08-20T23:08:55.809Z,1.98
2022-08-20T23:14:00.526Z,2.33
2022-08-20T23:19:05.061Z,6.65
2022-08-20T23:24:08.693Z,2.42
2022-08-20T23:29:22.193Z,4.57
2022-08-20T23:34:28.854Z,4.95
2022-08-20T23:39:32.428Z,1.60
2022-08-20T23:44:37.061Z,2.15
2022-08-20T23:49:40.326Z,5.53
2022-08-20T23:54:43.844Z,1.73
2022-08-20T23:59:48.626Z,3.88
